Flight Track Log - Related Links

Times and Time Zones

All times are in EDT time to prevent confusion due to time zone crossing. See the N6ZE flight status page for this flight to view local times or setup timezone preferences in your user account.


Time Position Orientation Groundspeed Altitude Reporting Facility
EDT Latitude Longitude Course Direction KTS MPH feet Rate Location/Type
Wed 05:54:57 PM 29.1825 -81.0564 59° Northeast 165 190 700  Level Jacksonville Center
Wed 05:55:33 PM 29.1986 -81.0253 57° Northeast 178 205 2,300 2,870 Climbing Jacksonville Center
Wed 05:57:38 PM 29.1833 -80.8833 97° East 264 304 8,400 2,833 Climbing Orlando TRACON
Wed 05:58:33 PM 29.1167 -80.8500 156° South 264 304 10,800 1,289 Climbing Orlando TRACON
Wed 05:59:39 PM 29.0333 -80.8167 161° South 313 360 11,000 405 Climbing Orlando TRACON
Wed 06:01:01 PM 28.9494 -80.7428 142° Southeast 312 359 11,800 839 Climbing Miami Center
Wed 06:02:02 PM 28.8903 -80.6697 133° Southeast 314 361 13,000 1,756 Climbing Miami Center
Wed 06:03:04 PM 28.8203 -80.5831 133° Southeast 311 358 15,400 2,129 Climbing Miami Center
Wed 06:04:06 PM 28.7572 -80.5242 141° Southeast 306 352 17,400 1,935 Climbing Miami Center
Wed 06:05:08 PM 28.6747 -80.5125 173° South 287 330 19,400 2,000 Climbing Miami Center
Wed 06:06:09 PM 28.5942 -80.4972 171° South 282 325 21,500 1,756 Climbing Miami Center
Wed 06:07:11 PM 28.5150 -80.4806 170° South 276 318 23,000 726 Climbing Miami Center
Wed 06:08:13 PM 28.4317 -80.4628 169° South 312 359 23,000  Level Miami Center
Wed 06:09:14 PM 28.3314 -80.4403 169° South 346 398 23,000  Level Miami Center
Wed 06:10:16 PM 28.2275 -80.4178 169° South 359 413 23,000  Level Miami Center
Wed 06:11:18 PM 28.1239 -80.3953 169° South 361 415 23,000  Level Miami Center
Wed 06:12:19 PM 28.0267 -80.3747 169° South 362 417 23,000  Level Miami Center
Wed 06:13:21 PM 27.9208 -80.3508 169° South 367 422 23,000  Level Miami Center
Wed 06:14:23 PM 27.8183 -80.3300 170° South 371 427 23,000  Level Miami Center
Wed 06:15:24 PM 27.7172 -80.3069 169° South 372 428 23,000  Level Miami Center
Wed 06:16:26 PM 27.6167 -80.2858 169° South 369 425 23,000  Level Miami Center
Wed 06:17:28 PM 27.5169 -80.2642 169° South 366 421 23,000  Level Miami Center
Wed 06:18:29 PM 27.4167 -80.2425 169° South 365 420 23,000  Level Miami Center
Wed 06:19:31 PM 27.3172 -80.2222 170° South 365 420 23,000  Level Miami Center
Wed 06:20:33 PM 27.1989 -80.1967 169° South 362 417 23,000 -488 Level Miami Center
Wed 06:21:34 PM 27.1008 -80.1764 170° South 361 415 22,000 -1,171 Descending Miami Center
Wed 06:22:36 PM 26.9989 -80.1539 169° South 358 412 20,600 -1,355 Descending Miami Center
Wed 06:23:38 PM 26.8989 -80.1328 169° South 353 406 19,200 -1,500 Descending Miami Center
Wed 06:24:40 PM 26.8000 -80.1133 170° South 345 397 17,500 -1,659 Descending Miami Center
Wed 06:25:41 PM 26.7086 -80.0925 168° South 336 387 15,800 -1,810 Descending Miami Center
Wed 06:26:36 PM 26.6239 -80.0775 171° South 332 382 14,000 -2,032 Descending Miami Center
Wed 06:27:45 PM 26.5217 -80.0589 171° South 321 369 11,600 -1,475 Descending Miami Center
Wed 06:28:38 PM 26.4519 -80.0481 172° South 300 345 11,000 -293 Descending Miami Center
Wed 06:29:48 PM 26.3583 -80.0372 174° South 292 336 11,000  Level Miami Center
Wed 06:30:40 PM 26.2811 -80.0306 176° South 294 338 11,000  Level Miami Center
Wed 06:30:50 PM 26.2700 -80.0275 166° South 293 337 11,000  Level Miami Center
Wed 06:31:42 PM 26.2003 -80.0197 174° South 295 339 11,000 -212 Level Miami Center
Wed 06:32:43 PM 26.1167 -80.0136 176° South 297 342 10,600 -423 Descending Miami Center
Wed 06:32:53 PM 26.1158 -80.0131 149° Southeast 294 338 10,500 -1,180 Descending Miami Center
Wed 06:33:44 PM 26.0494 -80.0550 210° Southwest 282 325 9,400 -1,082 Descending Miami Center
Wed 06:33:54 PM 26.0478 -80.0547 171° South 285 328 9,400 -1,279 Level Miami Center
Wed 06:34:45 PM 25.9889 -80.1175 224° Southwest 282 325 8,100 -1,548 Descending Miami Center
Wed 06:34:56 PM 25.9794 -80.1264 220° Southwest 282 325 7,800 -1,397 Descending Miami Center
Wed 06:35:58 PM 25.9233 -80.1872 224° Southwest 276 318 6,400 -1,309 Descending Miami Center
Wed 06:36:46 PM 25.8694 -80.2172 207° Southwest 255 293 5,400 -1,180 Descending Miami Center
Wed 06:36:59 PM 25.8611 -80.2200 197° South 259 298 5,200 -968 Descending Miami Center
Wed 06:37:48 PM 25.7992 -80.2397 196° South 257 296 4,400 -968 Descending Miami Center
Wed 06:38:01 PM 25.7897 -80.2403 183° South 260 299 4,200 -400 Descending Miami Center
Wed 06:38:48 PM 25.7350 -80.2578 196° South 225 259 4,000 -197 Descending Miami Center
Wed 06:39:02 PM 25.7264 -80.2600 193° South 237 273 4,000 -774 Level Miami Center
Wed 06:39:50 PM 25.6753 -80.2764 196° South 222 255 3,200 -871 Descending Miami Center
Wed 06:40:04 PM 25.6664 -80.2803 202° Southwest 226 260 3,100 -806 Descending Miami Center
Wed 06:40:57 PM 25.6364 -80.3267 234° Southwest 174 200 2,300 -537 Descending Miami Center
Wed 06:42:07 PM 25.6094 -80.3719 237° Southwest 177 204 2,000 -310 Descending Miami Center
Wed 06:42:53 PM 25.6011 -80.4208 259° West 188 216 1,700 -484 Descending Miami Center
Wed 06:43:09 PM 25.5997 -80.4328 263° West 178 205 1,500 -197 Descending Miami Center
Wed 06:43:54 PM 25.6019 -80.4742 273° West 172 198 1,500 -98 Level Miami Center
Wed 06:44:10 PM 25.6106 -80.4831 317° Northwest 165 190 1,400 -590 Descending Miami Center
Wed 06:44:55 PM 25.6331 -80.4789 North 114 131 900 -677 Descending Miami Center
Wed 06:45:12 PM 25.6411 -80.4706 43° Northeast 124 143 700 -308 Descending Miami Center
Wed 06:46:13 PM 25.6603 -80.4447 51° Northeast 120 138 500 -197 Descending Miami Center
Wed 06:48:00 PM 25.6476 -80.4332 54° Northeast  Level Estimated

Login

Don't have an account? Register now (free) for customized features, flight alerts, and more!